createdAt,value
2023-04-24T00:02:24.690Z,4.70
2023-04-24T00:04:52.799Z,5.08
2023-04-24T00:07:20.687Z,5.30
2023-04-24T00:09:48.534Z,4.65
2023-04-24T00:12:16.605Z,5.00
2023-04-24T00:14:44.609Z,4.92
2023-04-24T00:17:12.494Z,5.58
2023-04-24T00:19:40.571Z,4.65
2023-04-24T00:22:08.848Z,4.22
2023-04-24T00:24:36.608Z,3.72
2023-04-24T00:27:04.510Z,4.00
2023-04-24T00:29:32.363Z,3.30
2023-04-24T00:32:00.384Z,3.90
2023-04-24T00:34:28.454Z,4.17
2023-04-24T00:36:56.195Z,3.60
2023-04-24T00:39:24.028Z,3.92
2023-04-24T00:41:53.150Z,3.80
2023-04-24T00:44:20.954Z,4.37
2023-04-24T00:46:55.237Z,4.08
2023-04-24T00:49:23.526Z,4.00
2023-04-24T00:51:51.797Z,4.20
2023-04-24T00:54:19.741Z,3.83
2023-04-24T00:56:47.817Z,3.77
2023-04-24T00:59:18.510Z,3.98
2023-04-24T01:01:47.830Z,3.60
2023-04-24T01:04:18.609Z,3.42
2023-04-24T01:06:46.699Z,3.55
2023-04-24T01:09:15.190Z,3.70
2023-04-24T01:11:45.977Z,3.52
2023-04-24T01:14:14.405Z,3.72
2023-04-24T01:16:43.000Z,3.40
2023-04-24T01:19:12.660Z,3.50
2023-04-24T01:21:41.124Z,3.70
2023-04-24T01:24:09.124Z,3.90
2023-04-24T01:26:37.125Z,3.80
2023-04-24T01:29:04.995Z,3.40
2023-04-24T01:31:34.142Z,3.20
2023-04-24T01:34:03.128Z,3.35
2023-04-24T01:36:33.011Z,3.30
2023-04-24T01:39:01.170Z,3.67
2023-04-24T01:41:32.423Z,3.95
2023-04-24T01:44:00.306Z,3.58
2023-04-24T01:46:28.382Z,3.25
2023-04-24T01:48:56.820Z,3.45
2023-04-24T01:51:24.830Z,3.40
2023-04-24T01:53:52.765Z,3.33
2023-04-24T01:56:22.998Z,3.10
2023-04-24T01:58:53.917Z,3.40
2023-04-24T02:01:22.093Z,3.30
2023-04-24T02:03:50.056Z,3.77
2023-04-24T02:06:18.062Z,2.87
2023-04-24T02:08:45.949Z,3.40
2023-04-24T02:11:13.893Z,3.35
2023-04-24T02:13:41.843Z,3.30
2023-04-24T02:16:09.764Z,3.15
2023-04-24T02:18:37.790Z,3.40
2023-04-24T02:21:05.901Z,3.40
2023-04-24T02:23:33.659Z,3.72
2023-04-24T02:26:01.606Z,3.70
2023-04-24T02:28:29.406Z,3.87
2023-04-24T02:30:59.003Z,3.85
2023-04-24T02:33:27.082Z,3.42
2023-04-24T02:35:54.967Z,3.90
2023-04-24T02:38:23.088Z,3.70
2023-04-24T02:40:51.105Z,3.67
2023-04-24T02:43:19.068Z,3.58
2023-04-24T02:45:47.190Z,4.20
2023-04-24T02:48:14.930Z,4.42
2023-04-24T02:50:43.171Z,4.08
2023-04-24T02:53:12.501Z,4.00
2023-04-24T02:55:40.371Z,3.67
2023-04-24T02:58:08.326Z,3.87
2023-04-24T03:00:36.404Z,3.55
2023-04-24T03:03:04.467Z,3.22
2023-04-24T03:05:32.519Z,4.40
2023-04-24T03:08:00.519Z,4.83
2023-04-24T03:10:29.604Z,4.15
2023-04-24T03:12:57.613Z,4.25
2023-04-24T03:15:25.978Z,3.83
2023-04-24T03:17:56.524Z,3.45
2023-04-24T03:20:24.318Z,3.85
2023-04-24T03:22:54.599Z,3.70
2023-04-24T03:25:22.968Z,3.98
2023-04-24T03:27:51.264Z,4.35
2023-04-24T03:30:23.610Z,4.55
2023-04-24T03:32:53.460Z,4.90
2023-04-24T03:35:23.476Z,4.85
2023-04-24T03:37:52.003Z,5.20
2023-04-24T03:40:37.104Z,4.78
2023-04-24T03:43:06.777Z,5.08
2023-04-24T03:45:34.642Z,4.65
2023-04-24T03:48:03.203Z,4.58
2023-04-24T03:50:31.313Z,4.62
2023-04-24T03:53:00.187Z,4.60
2023-04-24T03:55:32.763Z,4.87
2023-04-24T03:58:03.064Z,4.37
2023-04-24T04:00:32.731Z,4.53
2023-04-24T04:03:02.806Z,4.62
2023-04-24T04:05:31.387Z,4.30
2023-04-24T04:07:59.524Z,4.80
2023-04-24T04:10:27.648Z,4.53
2023-04-24T04:12:56.089Z,4.50
2023-04-24T04:15:25.525Z,4.50
2023-04-24T04:17:55.008Z,4.20
2023-04-24T04:20:23.648Z,4.95
2023-04-24T04:22:52.100Z,4.80
2023-04-24T04:25:23.641Z,6.80
2023-04-24T04:27:52.808Z,6.05
2023-04-24T04:30:24.036Z,5.78
2023-04-24T04:32:54.048Z,7.83
2023-04-24T04:35:23.237Z,13.25
2023-04-24T04:37:52.346Z,16.23
2023-04-24T04:43:34.982Z,5.65
2023-04-24T04:46:04.149Z,4.35
2023-04-24T04:48:59.135Z,4.12
2023-04-24T04:55:22.236Z,4.50
2023-04-24T04:58:30.146Z,3.77
2023-04-24T05:01:07.764Z,3.87
2023-04-24T05:03:51.327Z,4.20
2023-04-24T05:06:33.718Z,4.20
2023-04-24T05:09:04.477Z,4.30
2023-04-24T05:11:54.819Z,3.98
2023-04-24T05:15:01.767Z,3.83
2023-04-24T05:17:47.172Z,4.03
2023-04-24T05:20:33.313Z,3.75
2023-04-24T05:25:52.179Z,4.20
2023-04-24T05:28:29.988Z,4.30
2023-04-24T05:31:36.436Z,5.03
2023-04-24T05:44:35.953Z,4.55
2023-04-24T05:52:59.491Z,4.20
2023-04-24T05:55:46.681Z,4.45
2023-04-24T05:58:20.728Z,4.17
2023-04-24T06:00:59.420Z,4.62
2023-04-24T06:21:17.584Z,3.95
2023-04-24T06:23:47.366Z,4.22
2023-04-24T06:26:17.132Z,4.00
2023-04-24T06:28:45.275Z,4.17
2023-04-24T06:31:13.320Z,5.17
2023-04-24T06:33:41.471Z,4.22
2023-04-24T06:36:11.448Z,4.37
2023-04-24T06:38:40.607Z,5.08
2023-04-24T06:41:09.414Z,3.87
2023-04-24T06:46:35.481Z,3.75
2023-04-24T06:49:05.854Z,3.10
2023-04-24T06:51:33.885Z,3.70
2023-04-24T06:54:02.342Z,3.72
2023-04-24T06:56:30.568Z,3.90
2023-04-24T06:59:00.268Z,3.85
2023-04-24T07:01:28.231Z,3.27
2023-04-24T07:03:56.332Z,3.55
2023-04-24T07:06:24.988Z,3.70
2023-04-24T07:08:53.214Z,4.17
2023-04-24T07:11:22.792Z,3.40
2023-04-24T07:13:50.762Z,5.05
2023-04-24T07:16:18.656Z,3.90
2023-04-24T07:18:46.548Z,4.50
2023-04-24T07:21:15.156Z,3.72
2023-04-24T07:23:43.446Z,3.52
2023-04-24T07:26:11.554Z,3.87
2023-04-24T07:28:39.425Z,3.55
2023-04-24T07:31:08.804Z,4.17
2023-04-24T07:33:37.896Z,2.92
2023-04-24T07:36:08.468Z,3.30
2023-04-24T07:38:37.056Z,4.03
2023-04-24T07:41:05.595Z,3.50
2023-04-24T07:43:35.666Z,3.27
2023-04-24T07:46:10.196Z,3.08
2023-04-24T07:48:39.620Z,3.30
2023-04-24T07:51:07.536Z,3.85
2023-04-24T07:53:36.576Z,2.98
2023-04-24T07:56:06.300Z,3.10
2023-04-24T08:01:18.102Z,2.60
2023-04-24T08:07:10.128Z,2.80
2023-04-24T08:10:15.730Z,3.17
2023-04-24T08:12:49.717Z,3.05
2023-04-24T08:15:18.197Z,3.02
2023-04-24T08:17:46.357Z,2.37
2023-04-24T08:20:14.906Z,2.80
2023-04-24T08:22:44.535Z,2.72
2023-04-24T08:25:12.602Z,2.72
2023-04-24T08:27:40.949Z,2.12
2023-04-24T08:30:12.105Z,2.50
2023-04-24T08:32:41.305Z,2.27
2023-04-24T08:35:10.234Z,2.35
2023-04-24T08:37:38.343Z,2.47
2023-04-24T08:40:14.817Z,2.20
2023-04-24T08:42:46.834Z,2.60
2023-04-24T08:45:27.122Z,2.55
2023-04-24T08:48:29.693Z,2.50
2023-04-24T08:51:14.061Z,2.33
2023-04-24T08:53:45.495Z,3.65
2023-04-24T08:56:13.761Z,2.70
2023-04-24T08:58:42.480Z,2.22
2023-04-24T09:01:10.780Z,2.20
2023-04-24T09:03:40.559Z,2.37
2023-04-24T09:06:13.959Z,2.90
2023-04-24T09:08:43.576Z,2.70
2023-04-24T09:11:12.957Z,2.47
2023-04-24T09:13:44.711Z,2.20
2023-04-24T09:16:14.980Z,2.58
2023-04-24T09:18:46.332Z,2.80
2023-04-24T09:21:15.732Z,2.47
2023-04-24T09:23:44.039Z,2.72
2023-04-24T09:26:12.882Z,2.90
2023-04-24T09:28:44.749Z,2.30
2023-04-24T09:31:26.847Z,2.40
2023-04-24T09:34:02.404Z,2.50
2023-04-24T09:36:43.696Z,2.35
2023-04-24T09:39:16.091Z,2.60
2023-04-24T09:42:10.059Z,2.70
2023-04-24T09:44:35.931Z,2.40
2023-04-24T09:47:04.225Z,2.40
2023-04-24T09:49:35.902Z,2.50
2023-04-24T09:52:11.159Z,2.30
2023-04-24T09:54:43.508Z,2.80
2023-04-24T09:57:16.364Z,2.40
2023-04-24T09:59:50.767Z,3.47
2023-04-24T10:02:26.333Z,2.45
2023-04-24T10:04:59.887Z,2.50
2023-04-24T10:07:28.824Z,2.87
2023-04-24T10:09:57.748Z,2.30
2023-04-24T10:12:27.533Z,3.00
2023-04-24T10:14:56.136Z,2.05
2023-04-24T10:17:26.109Z,2.55
2023-04-24T10:19:54.677Z,2.70
2023-04-24T10:22:26.396Z,2.33
2023-04-24T10:28:13.631Z,2.40
2023-04-24T10:30:43.964Z,2.62
2023-04-24T10:33:15.193Z,2.20
2023-04-24T10:35:52.223Z,2.65
2023-04-24T10:38:27.509Z,2.67
2023-04-24T10:41:11.178Z,2.30
2023-04-24T10:43:41.779Z,2.00
2023-04-24T10:46:14.587Z,2.20
2023-04-24T10:48:56.442Z,2.17
2023-04-24T10:51:26.628Z,2.40
2023-04-24T10:53:54.814Z,2.22
2023-04-24T10:56:23.260Z,2.80
2023-04-24T10:58:56.573Z,2.30
2023-04-24T11:01:33.409Z,2.30
2023-04-24T11:04:04.244Z,2.62
2023-04-24T11:06:37.906Z,2.22
2023-04-24T11:09:09.482Z,2.65
2023-04-24T11:11:40.917Z,2.33
2023-04-24T11:14:09.516Z,2.33
2023-04-24T11:16:57.949Z,2.80
2023-04-24T11:19:28.940Z,2.90
2023-04-24T11:22:05.385Z,2.52
2023-04-24T11:24:41.137Z,2.50
2023-04-24T11:27:17.598Z,2.17
2023-04-24T11:30:00.437Z,2.27
2023-04-24T11:32:43.329Z,2.80
2023-04-24T11:35:29.072Z,4.35
2023-04-24T11:38:23.302Z,2.98
2023-04-24T11:40:38.580Z,2.30
2023-04-24T11:43:11.526Z,2.10
2023-04-24T11:45:46.294Z,2.75
2023-04-24T11:48:22.781Z,2.90
2023-04-24T11:50:52.412Z,2.30
2023-04-24T11:53:22.460Z,3.33
2023-04-24T11:55:52.776Z,2.47
2023-04-24T11:58:23.649Z,2.75
2023-04-24T12:01:00.143Z,3.30
2023-04-24T12:03:28.731Z,2.30
2023-04-24T12:06:22.618Z,2.40
2023-04-24T12:08:59.555Z,3.10
2023-04-24T12:11:34.407Z,3.02
2023-04-24T12:14:13.253Z,2.55
2023-04-24T12:16:53.623Z,2.80
2023-04-24T12:19:25.779Z,2.40
2023-04-24T12:22:06.552Z,2.60
2023-04-24T12:24:34.919Z,2.17
2023-04-24T12:27:05.529Z,2.35
2023-04-24T12:29:35.908Z,2.30
2023-04-24T12:32:04.374Z,2.22
2023-04-24T12:34:32.915Z,2.30
2023-04-24T12:37:12.673Z,2.10
2023-04-24T12:40:02.720Z,2.70
2023-04-24T12:42:31.669Z,2.22
2023-04-24T12:45:03.980Z,3.58
2023-04-24T12:47:33.309Z,2.70
2023-04-24T12:50:01.949Z,2.47
2023-04-24T12:52:31.458Z,2.45
2023-04-24T12:55:05.280Z,2.62
2023-04-24T12:57:33.137Z,2.20
2023-04-24T13:00:00.839Z,2.40
2023-04-24T13:02:32.707Z,2.67
2023-04-24T13:05:01.775Z,2.45
2023-04-24T13:07:29.510Z,2.90
2023-04-24T13:09:58.373Z,2.58
2023-04-24T13:12:26.949Z,2.50
2023-04-24T13:14:54.965Z,2.15
2023-04-24T13:17:22.696Z,2.37
2023-04-24T13:19:52.163Z,2.60
2023-04-24T13:22:19.813Z,2.52
2023-04-24T13:24:49.145Z,2.62
2023-04-24T13:27:18.140Z,2.52
2023-04-24T13:29:46.451Z,2.37
2023-04-24T13:32:14.647Z,2.95
2023-04-24T13:34:52.381Z,2.90
2023-04-24T13:37:58.452Z,3.52
2023-04-24T13:40:34.351Z,2.60
2023-04-24T13:47:33.715Z,3.67
2023-04-24T13:50:35.940Z,2.83
2023-04-24T13:56:43.972Z,3.27
2023-04-24T13:59:14.922Z,3.95
2023-04-24T14:01:50.150Z,3.10
2023-04-24T14:04:27.843Z,2.95
2023-04-24T14:07:10.935Z,3.02
2023-04-24T14:09:40.997Z,3.83
2023-04-24T14:12:15.217Z,3.33
2023-04-24T14:14:51.315Z,3.15
2023-04-24T14:17:33.985Z,2.80
2023-04-24T14:23:51.156Z,3.47
2023-04-24T14:27:48.496Z,2.70
2023-04-24T14:30:43.345Z,3.98
2023-04-24T14:33:16.093Z,3.70
2023-04-24T14:35:45.216Z,3.30
2023-04-24T14:38:15.559Z,3.70
2023-04-24T14:41:05.487Z,4.25
2023-04-24T14:43:15.496Z,3.12
2023-04-24T14:45:44.314Z,4.50
2023-04-24T14:48:12.540Z,7.72
2023-04-24T14:50:40.708Z,4.78
2023-04-24T14:53:08.642Z,4.10
2023-04-24T14:55:36.873Z,2.98
2023-04-24T14:58:05.312Z,4.72
2023-04-24T15:00:33.805Z,3.40
2023-04-24T15:03:03.561Z,3.67
2023-04-24T15:05:57.366Z,3.42
2023-04-24T15:15:50.438Z,3.77
2023-04-24T15:18:40.135Z,3.92
2023-04-24T15:21:18.157Z,4.37
2023-04-24T15:23:55.684Z,3.55
2023-04-24T15:26:34.597Z,4.33
2023-04-24T15:29:02.924Z,5.97
2023-04-24T15:31:30.599Z,4.30
2023-04-24T15:34:00.159Z,17.65
2023-04-24T15:36:31.784Z,10.03
2023-04-24T15:39:08.382Z,5.60
2023-04-24T15:41:41.988Z,5.83
2023-04-24T15:44:19.876Z,5.80
2023-04-24T15:46:47.639Z,4.33
2023-04-24T15:49:15.859Z,4.05
2023-04-24T15:51:44.848Z,5.05
2023-04-24T15:54:14.181Z,4.60
2023-04-24T15:56:49.643Z,4.67
2023-04-24T15:59:18.816Z,4.92
2023-04-24T16:01:54.014Z,6.10
2023-04-24T16:04:22.754Z,4.12
2023-04-24T16:06:53.737Z,5.40
2023-04-24T16:09:23.204Z,6.75
2023-04-24T16:11:52.352Z,5.08
2023-04-24T16:14:21.173Z,4.50
2023-04-24T16:16:50.201Z,4.50
2023-04-24T16:19:20.581Z,4.83
2023-04-24T16:21:52.944Z,4.87
2023-04-24T16:24:23.743Z,6.08
2023-04-24T16:26:52.549Z,6.50
2023-04-24T16:29:22.775Z,4.87
2023-04-24T16:31:52.119Z,5.25
2023-04-24T16:34:20.093Z,5.95
2023-04-24T16:36:48.305Z,4.95
2023-04-24T16:39:16.258Z,11.38
2023-04-24T16:41:45.269Z,32.75
2023-04-24T16:44:14.230Z,9.75
2023-04-24T16:46:44.991Z,49.27
2023-04-24T16:49:13.001Z,12.63
2023-04-24T16:51:41.011Z,18.50
2023-04-24T16:54:09.313Z,29.25
2023-04-24T16:56:37.564Z,15.08
2023-04-24T16:59:07.399Z,38.78
2023-04-24T17:01:39.903Z,30.55
2023-04-24T17:04:09.921Z,14.25
2023-04-24T17:06:40.471Z,7.55
2023-04-24T17:09:08.579Z,10.03
2023-04-24T17:11:38.958Z,6.22
2023-04-24T17:14:07.355Z,7.92
2023-04-24T17:16:37.108Z,16.62
2023-04-24T17:19:06.322Z,10.20
2023-04-24T17:21:39.186Z,10.32
2023-04-24T17:24:07.144Z,9.48
2023-04-24T17:26:35.303Z,9.73
2023-04-24T17:29:03.614Z,7.37
2023-04-24T17:31:31.741Z,12.33
2023-04-24T17:33:59.587Z,6.80
2023-04-24T17:36:27.753Z,6.33
2023-04-24T17:38:58.438Z,6.80
2023-04-24T17:41:26.256Z,6.92
2023-04-24T17:43:53.883Z,7.15
2023-04-24T17:46:21.797Z,7.05
2023-04-24T17:48:50.359Z,9.10
2023-04-24T17:51:18.494Z,9.48
2023-04-24T17:53:48.170Z,10.72
2023-04-24T17:56:16.193Z,12.00
2023-04-24T17:58:43.937Z,13.45
2023-04-24T18:01:12.399Z,13.58
2023-04-24T18:03:40.403Z,13.70
2023-04-24T18:06:09.684Z,12.13
2023-04-24T18:08:37.760Z,14.03
2023-04-24T18:11:05.594Z,13.13
2023-04-24T18:13:35.584Z,11.30
2023-04-24T18:16:03.721Z,12.10
2023-04-24T18:18:31.735Z,13.93
2023-04-24T18:20:59.695Z,15.80
2023-04-24T18:23:27.671Z,12.88
2023-04-24T18:25:55.594Z,12.85
2023-04-24T18:28:23.498Z,13.50
2023-04-24T18:30:53.285Z,15.75
2023-04-24T18:33:26.905Z,15.23
2023-04-24T18:35:55.292Z,12.43
2023-04-24T18:38:25.599Z,13.18
2023-04-24T18:40:53.737Z,13.62
2023-04-24T18:43:21.868Z,11.12
2023-04-24T18:45:49.506Z,11.85
2023-04-24T18:48:17.480Z,9.88
2023-04-24T18:50:45.460Z,10.93
2023-04-24T18:53:17.287Z,11.05
2023-04-24T18:55:45.148Z,12.98
2023-04-24T18:58:13.161Z,11.90
2023-04-24T19:00:42.803Z,11.80
2023-04-24T19:03:16.925Z,12.90
2023-04-24T19:05:45.026Z,12.78
2023-04-24T19:08:13.058Z,13.75
2023-04-24T19:10:41.118Z,12.43
2023-04-24T19:13:09.241Z,12.70
2023-04-24T19:15:39.254Z,14.35
2023-04-24T19:18:09.160Z,12.55
2023-04-24T19:20:37.631Z,12.60
2023-04-24T19:23:05.811Z,13.10
2023-04-24T19:25:33.805Z,15.83
2023-04-24T19:28:01.893Z,13.98
2023-04-24T19:30:36.064Z,35.92
2023-04-24T19:33:04.151Z,64.10
2023-04-24T19:35:33.923Z,39.13
2023-04-24T19:38:04.180Z,20.02
2023-04-24T19:40:32.692Z,17.55
2023-04-24T19:43:00.486Z,29.20
2023-04-24T19:45:28.351Z,17.57
2023-04-24T19:47:56.074Z,19.20
2023-04-24T19:50:24.331Z,20.92
2023-04-24T19:52:52.139Z,18.57
2023-04-24T19:55:20.349Z,23.65
2023-04-24T19:57:48.945Z,20.10
2023-04-24T20:00:16.916Z,16.12
2023-04-24T20:02:45.759Z,14.98
2023-04-24T20:05:14.472Z,13.00
2023-04-24T20:07:42.702Z,12.13
2023-04-24T20:10:11.321Z,12.55
2023-04-24T20:12:39.399Z,12.63
2023-04-24T20:15:09.626Z,12.90
2023-04-24T20:17:37.613Z,11.75
2023-04-24T20:20:06.936Z,10.90
2023-04-24T20:22:41.173Z,10.28
2023-04-24T20:25:14.820Z,9.68
2023-04-24T20:27:42.884Z,9.40
2023-04-24T20:30:15.999Z,9.03
2023-04-24T20:32:44.494Z,10.58
2023-04-24T20:35:12.856Z,13.83
2023-04-24T20:37:41.916Z,17.87
2023-04-24T20:40:10.560Z,26.23
2023-04-24T20:42:40.661Z,20.08
2023-04-24T20:45:11.939Z,18.52
2023-04-24T20:47:40.085Z,17.27
2023-04-24T20:50:10.469Z,16.57
2023-04-24T20:52:38.673Z,16.93
2023-04-24T20:55:10.496Z,15.95
2023-04-24T20:57:39.646Z,15.60
2023-04-24T21:00:10.650Z,16.20
2023-04-24T21:02:39.208Z,15.15
2023-04-24T21:05:08.370Z,17.07
2023-04-24T21:07:36.453Z,17.52
2023-04-24T21:10:06.400Z,18.92
2023-04-24T21:12:34.420Z,21.05
2023-04-24T21:15:04.200Z,22.30
2023-04-24T21:17:33.475Z,21.62
2023-04-24T21:20:04.187Z,21.25
2023-04-24T21:22:32.935Z,20.55
2023-04-24T21:25:01.071Z,17.85
2023-04-24T21:27:31.036Z,16.87
2023-04-24T21:29:59.389Z,16.62
2023-04-24T21:32:28.529Z,17.62
2023-04-24T21:34:59.028Z,15.58
2023-04-24T21:37:30.300Z,15.35
2023-04-24T21:39:58.649Z,15.32
2023-04-24T21:42:27.180Z,14.83
2023-04-24T21:44:55.671Z,15.10
2023-04-24T21:47:25.235Z,13.43
2023-04-24T21:49:53.409Z,14.10
2023-04-24T21:52:22.706Z,12.85
2023-04-24T21:55:00.741Z,12.55
2023-04-24T21:57:30.063Z,11.48
2023-04-24T21:59:59.248Z,11.57
2023-04-24T22:02:29.041Z,11.95
2023-04-24T22:04:58.109Z,11.10
2023-04-24T22:07:29.435Z,11.28
2023-04-24T22:09:57.439Z,10.20
2023-04-24T22:12:25.561Z,10.13
2023-04-24T22:14:53.621Z,9.40
2023-04-24T22:17:23.102Z,9.50
2023-04-24T22:19:50.955Z,8.93
2023-04-24T22:22:20.315Z,8.55
2023-04-24T22:24:49.952Z,7.65
2023-04-24T22:27:18.273Z,7.47
2023-04-24T22:29:46.912Z,8.15
2023-04-24T22:32:15.808Z,7.37
2023-04-24T22:34:44.321Z,7.47
2023-04-24T22:37:13.299Z,7.10
2023-04-24T22:39:41.323Z,7.17
2023-04-24T22:42:09.351Z,7.20
2023-04-24T22:44:37.495Z,8.45
2023-04-24T22:47:07.389Z,8.30
2023-04-24T22:49:35.930Z,9.15
2023-04-24T22:52:04.613Z,9.65
2023-04-24T22:54:34.360Z,9.43
2023-04-24T22:57:04.008Z,10.35
2023-04-24T22:59:32.110Z,9.30
2023-04-24T23:02:01.349Z,9.10
2023-04-24T23:04:29.792Z,9.40
2023-04-24T23:06:57.834Z,10.08
2023-04-24T23:09:26.324Z,9.90
2023-04-24T23:11:55.024Z,10.08
2023-04-24T23:14:25.364Z,9.45
2023-04-24T23:16:54.798Z,9.48
2023-04-24T23:19:22.928Z,8.90
2023-04-24T23:21:50.910Z,8.45
2023-04-24T23:24:18.902Z,8.48
2023-04-24T23:26:46.923Z,7.70
2023-04-24T23:29:14.623Z,7.35
2023-04-24T23:31:42.381Z,7.22
2023-04-24T23:34:10.333Z,7.33
2023-04-24T23:36:38.144Z,7.62
2023-04-24T23:39:06.541Z,7.60
2023-04-24T23:41:34.560Z,8.23
2023-04-24T23:44:02.602Z,8.10
2023-04-24T23:46:31.610Z,7.08
2023-04-24T23:48:59.636Z,7.37
2023-04-24T23:51:28.782Z,7.17
2023-04-24T23:53:57.262Z,7.37
2023-04-24T23:56:26.158Z,7.20
2023-04-24T23:58:54.093Z,7.45
